YMOR

Details ICAO YMOR (MRZ)
Name Moree
Region Australia
Timezone Australia/Sydney (UTC+11.0)
Plans Departing 2
Arriving 1
Stats Elevation 701 ft / 214 m (AMSL)
Location -29.498894° 149.843127°
Runways 2
Magnetic Variation 10.646° E
Sunrise 2017-12-17 18:57:27 UTC / 2017-12-18 05:57:27 Local
Sunset 2017-12-18 08:59:20 UTC / 2017-12-18 19:59:20 Local
Advertisement - Login to hide

Runways

ID Width Length Bearing (true) Bearing (mag) Surface Threshold Offset Overrun Length
01 98 ft / 30 m 5,294 ft / 1,614 m 17.20° 6.55° Asphalt 0 ft / 0 m 0 ft / 0 m
19 98 ft / 30 m 5,294 ft / 1,614 m 197.20° 186.55° Asphalt 0 ft / 0 m 0 ft / 0 m
23 33 ft / 10 m 3,200 ft / 976 m 238.20° 227.55° Asphalt 0 ft / 0 m 0 ft / 0 m
5 33 ft / 10 m 3,200 ft / 976 m 58.20° 47.55° Asphalt 0 ft / 0 m 0 ft / 0 m

Map

Weather


0- 5 10 15 20 25 30 35+ Temperature / ° C

Clouds and Precipitation
Forecast for 2017-12-18 00:00 UTC. Updated an hour ago

Ground ~20,000 ft ~40,000 ft Winds

METAR

YMOR 172000Z AUTO 04015KT 9999 // NCD 23/18 Q1014

TAF

Not found

Frequencies

Unicom 126.70 MHz CTAF/UNICOM
Warning: Do not use this data for real-world aviation or navigation. No guarantee of current accuracy is given.